Time;durP1;ratioP1;P1;durP2;ratioP2;P2;SDS_P1;SDS_P2;PMS_P1;PMS_P2;Temp;Humidity;BMP_temperature;BMP_pressure;BME280_temperature;BME280_humidity;BME280_pressure;Samples;Min_cycle;Max_cycle;Signal;HPM_P1;HPM_P2
2022/12/21 00:00:06;;;;;;;35.10;26.05;;;12.40;91.80;;;;;;4592461;19;20070;-30
2022/12/21 00:01:38;;;;;;;38.20;28.00;;;12.40;91.80;;;;;;4592248;19;20456;-28
2022/12/21 00:03:09;;;;;;;38.63;26.45;;;12.40;91.80;;;;;;4591172;19;20033;-31
2022/12/21 00:04:42;;;;;;;35.85;25.02;;;12.40;91.80;;;;;;4589350;19;20010;-30
2022/12/21 00:06:14;;;;;;;35.07;25.60;;;12.30;91.70;;;;;;4591196;19;20078;-31
2022/12/21 00:07:45;;;;;;;33.17;23.65;;;12.40;91.80;;;;;;4592503;19;20425;-30
2022/12/21 00:09:17;;;;;;;36.03;25.42;;;12.40;91.80;;;;;;4591822;19;20030;-29
2022/12/21 00:10:49;;;;;;;34.42;24.20;;;12.30;91.70;;;;;;4592428;19;20007;-28
2022/12/21 00:12:20;;;;;;;35.42;25.60;;;12.30;91.70;;;;;;4592556;19;20029;-32
2022/12/21 00:13:51;;;;;;;;;;;12.30;91.70;;;;;;4593345;19;20489;-31
2022/12/21 00:15:23;;;;;;;35.73;25.53;;;12.30;91.70;;;;;;4591640;19;20377;-29
2022/12/21 00:16:54;;;;;;;36.00;25.48;;;12.30;91.70;;;;;;4591811;19;20011;-30
2022/12/21 00:18:25;;;;;;;38.05;26.92;;;12.40;91.70;;;;;;4590493;19;20014;-31
2022/12/21 00:19:56;;;;;;;39.58;27.10;;;12.30;91.70;;;;;;4591159;19;20494;-31
2022/12/21 00:21:29;;;;;;;39.38;27.48;;;12.40;91.70;;;;;;4590125;19;20038;-31
2022/12/21 00:23:00;;;;;;;38.70;27.93;;;12.40;91.70;;;;;;4591041;19;20018;-29
2022/12/21 00:24:32;;;;;;;40.20;26.95;;;12.30;91.70;;;;;;4592463;19;20025;-29
2022/12/21 00:26:04;;;;;;;41.28;29.27;;;12.30;91.70;;;;;;4591221;19;20015;-31
2022/12/21 00:27:35;;;;;;;34.30;25.30;;;12.30;91.70;;;;;;4590570;19;20006;-32
2022/12/21 00:29:07;;;;;;;35.85;27.00;;;12.30;91.70;;;;;;4591712;19;20006;-29
2022/12/21 00:30:38;;;;;;;40.45;28.40;;;12.30;91.60;;;;;;4590799;19;20015;-30
2022/12/21 00:32:09;;;;;;;50.15;30.63;;;12.30;91.60;;;;;;4590753;19;20341;-28
2022/12/21 00:33:40;;;;;;;48.25;30.63;;;12.40;91.60;;;;;;4591363;19;20010;-29
2022/12/21 00:35:12;;;;;;;46.28;30.98;;;12.30;91.60;;;;;;4592061;19;20007;-30
2022/12/21 00:36:43;;;;;;;44.78;32.65;;;12.30;91.60;;;;;;4591112;19;20018;-28
2022/12/21 00:38:14;;;;;;;41.50;29.17;;;12.30;91.60;;;;;;4591366;19;20011;-29
2022/12/21 00:39:45;;;;;;;36.38;27.02;;;12.40;91.60;;;;;;4590010;19;20025;-33
2022/12/21 00:41:19;;;;;;;37.65;26.75;;;12.40;91.60;;;;;;4591517;19;20011;-30
2022/12/21 00:42:50;;;;;;;37.93;27.93;;;12.30;91.50;;;;;;4591112;19;20015;-31
2022/12/21 00:44:21;;;;;;;41.78;29.67;;;12.30;91.50;;;;;;4590949;19;20007;-33
2022/12/21 00:45:53;;;;;;;40.10;29.88;;;12.30;91.50;;;;;;4591210;19;20375;-29
2022/12/21 00:47:24;;;;;;;;;;;12.30;91.50;;;;;;4591430;19;20026;-29
2022/12/21 00:48:56;;;;;;;51.73;34.83;;;12.30;91.50;;;;;;4588537;19;19922;-31
2022/12/21 00:50:28;;;;;;;43.07;30.87;;;12.30;91.50;;;;;;4590460;19;20372;-31
2022/12/21 00:51:59;;;;;;;42.78;30.10;;;12.30;91.50;;;;;;4591126;19;20338;-28
2022/12/21 00:53:30;;;;;;;41.80;30.40;;;12.30;91.50;;;;;;4591843;19;20011;-31
2022/12/21 00:55:02;;;;;;;39.10;28.80;;;12.30;91.50;;;;;;4590855;19;20019;-31
2022/12/21 00:56:33;;;;;;;36.10;26.17;;;12.30;91.60;;;;;;4590999;19;20487;-29
2022/12/21 00:58:04;;;;;;;35.38;26.48;;;12.30;91.60;;;;;;4591370;19;20021;-31
2022/12/21 00:59:35;;;;;;;42.15;28.67;;;12.30;91.60;;;;;;4591043;19;20090;-29
2022/12/21 01:01:21;;;;;;;38.88;27.92;;;12.30;91.60;;;;;;4590883;19;20066;-31
2022/12/21 01:02:52;;;;;;;38.70;26.53;;;12.30;91.60;;;;;;4589965;19;20041;-31
2022/12/21 01:04:24;;;;;;;39.45;27.60;;;12.30;91.60;;;;;;4589826;19;20014;-29
2022/12/21 01:05:55;;;;;;;38.35;27.98;;;12.30;91.60;;;;;;4590543;19;20343;-31
2022/12/21 01:07:26;;;;;;;38.60;27.95;;;12.30;91.60;;;;;;4589927;19;20010;-33
2022/12/21 01:08:58;;;;;;;38.50;26.13;;;12.30;91.60;;;;;;4591094;19;20031;-30
2022/12/21 01:10:29;;;;;;;38.45;27.10;;;12.30;91.60;;;;;;4591309;19;20002;-29
2022/12/21 01:12:00;;;;;;;38.42;27.90;;;12.30;91.60;;;;;;4590381;19;20007;-28
2022/12/21 01:13:32;;;;;;;35.50;26.48;;;12.30;91.60;;;;;;4590800;19;20018;-30
2022/12/21 01:15:04;;;;;;;38.72;26.70;;;12.30;91.60;;;;;;4589822;19;20456;-29
2022/12/21 01:16:35;;;;;;;39.08;27.23;;;12.30;91.50;;;;;;4590273;19;20019;-29
2022/12/21 01:18:06;;;;;;;39.85;28.02;;;12.30;91.60;;;;;;4590336;19;20096;-29
2022/12/21 01:19:37;;;;;;;41.78;30.13;;;12.30;91.50;;;;;;4591070;19;20385;-32
2022/12/21 01:21:19;;;;;;;40.63;27.85;;;12.30;91.50;;;;;;4590947;19;20011;-30
2022/12/21 01:22:50;;;;;;;38.28;25.42;;;12.30;91.50;;;;;;4590824;19;20010;-31
2022/12/21 01:24:21;;;;;;;35.47;25.70;;;12.30;91.50;;;;;;4590385;19;20080;-29
2022/12/21 01:25:52;;;;;;;42.92;28.98;;;12.30;91.40;;;;;;4590456;19;20393;-33
2022/12/21 01:27:24;;;;;;;39.58;27.95;;;12.40;91.40;;;;;;4589579;19;20014;-33
2022/12/21 01:28:55;;;;;;;43.33;29.92;;;12.40;91.40;;;;;;4590565;19;20485;-29
2022/12/21 01:30:27;;;;;;;42.58;29.73;;;12.40;91.50;;;;;;4590312;19;20010;-31
2022/12/21 01:31:58;;;;;;;;;;;12.40;91.50;;;;;;4591201;19;20010;-30
2022/12/21 01:33:30;;;;;;;39.93;27.67;;;12.40;91.40;;;;;;4590982;19;19919;-29
2022/12/21 01:35:01;;;;;;;36.65;25.98;;;12.40;91.40;;;;;;4589140;19;20425;-31
2022/12/21 01:36:32;;;;;;;39.58;26.52;;;12.40;91.40;;;;;;4590243;19;20022;-31
2022/12/21 01:38:03;;;;;;;39.10;26.92;;;12.40;91.40;;;;;;4590292;19;20019;-31
2022/12/21 01:39:34;;;;;;;37.90;28.17;;;12.30;91.40;;;;;;4590382;19;20006;-33
2022/12/21 01:41:06;;;;;;;45.88;29.08;;;12.40;91.50;;;;;;4589863;19;20016;-31
2022/12/21 01:42:37;;;;;;;;;;;12.40;91.40;;;;;;4589935;19;20038;-29
2022/12/21 01:44:46;;;;;;;38.70;26.53;;;12.40;91.40;;;;;;4589943;19;19994;-30
2022/12/21 01:46:28;;;;;;;37.90;26.10;;;12.40;91.40;;;;;;4595301;19;20039;-30
2022/12/21 01:48:05;;;;;;;40.47;27.58;;;12.40;91.30;;;;;;4595394;19;20327;-30
2022/12/21 01:49:36;;;;;;;38.87;27.97;;;12.40;91.30;;;;;;4593348;19;20006;-30
2022/12/21 01:51:08;;;;;;;40.25;27.80;;;12.40;91.30;;;;;;4593822;19;20433;-28
2022/12/21 01:52:39;;;;;;;46.53;29.73;;;12.40;91.40;;;;;;4594748;19;20013;-29
2022/12/21 01:54:23;;;;;;;39.17;28.27;;;12.40;91.30;;;;;;4595333;19;20011;-30
2022/12/21 01:55:55;;;;;;;37.10;26.50;;;12.40;91.40;;;;;;4594468;19;20411;-28
2022/12/21 01:57:29;;;;;;;39.87;27.60;;;12.40;91.30;;;;;;4594457;19;20350;-32
2022/12/21 01:59:08;;;;;;;35.47;26.43;;;12.40;91.30;;;;;;4593415;19;20010;-30
2022/12/21 02:00:40;;;;;;;36.33;25.67;;;12.30;91.30;;;;;;4594058;19;20111;-28
2022/12/21 02:02:17;;;;;;;37.72;25.70;;;12.30;91.30;;;;;;4593267;19;20010;-28
2022/12/21 02:03:51;;;;;;;37.33;26.23;;;12.40;91.30;;;;;;4592387;19;20030;-27
2022/12/21 02:05:34;;;;;;;42.00;29.13;;;12.40;91.30;;;;;;4594768;19;20027;-30
2022/12/21 02:07:05;;;;;;;39.30;27.50;;;12.40;91.30;;;;;;4593142;19;20423;-29
2022/12/21 02:08:36;;;;;;;39.47;26.88;;;12.40;91.30;;;;;;4593573;19;20040;-33
2022/12/21 02:10:08;;;;;;;37.28;26.13;;;12.40;91.40;;;;;;4593165;19;20032;-30
2022/12/21 02:11:40;;;;;;;;;;;12.30;91.40;;;;;;4595138;19;20082;-32
2022/12/21 02:13:15;;;;;;;40.23;27.70;;;12.40;91.40;;;;;;4593205;19;19919;-31
2022/12/21 02:14:47;;;;;;;41.43;27.93;;;12.40;91.40;;;;;;4593870;19;20510;-30
2022/12/21 02:16:30;;;;;;;40.95;27.75;;;12.40;91.40;;;;;;4594075;19;20011;-29
2022/12/21 02:18:31;;;;;;;38.33;28.10;;;12.40;91.40;;;;;;4593122;19;20025;-29
2022/12/21 02:20:29;;;;;;;39.73;26.97;;;12.30;91.40;;;;;;4592840;19;20933;-31
2022/12/21 02:22:04;;;;;;;40.03;27.63;;;12.40;91.40;;;;;;4594172;19;20022;-28
2022/12/21 02:23:55;;;;;;;39.10;27.60;;;12.30;91.50;;;;;;4593250;19;20007;-28
2022/12/21 02:25:33;;;;;;;38.53;26.83;;;12.40;91.50;;;;;;4594292;19;20089;-30
2022/12/21 02:27:57;;;;;;;41.47;27.40;;;12.40;91.50;;;;;;4593048;19;20468;-33
2022/12/21 02:29:34;;;;;;;41.17;28.83;;;12.40;91.50;;;;;;4592100;19;20018;-29
2022/12/21 02:31:14;;;;;;;39.10;27.37;;;12.40;91.50;;;;;;4591776;19;20070;-28
2022/12/21 02:33:29;;;;;;;38.33;26.73;;;12.30;91.50;;;;;;4591451;19;20456;-30
2022/12/21 02:35:26;;;;;;;43.17;27.73;;;12.40;91.50;;;;;;4591421;19;20015;-28
2022/12/21 02:37:05;;;;;;;41.47;28.23;;;12.30;91.40;;;;;;4591201;19;20014;-30
2022/12/21 02:38:54;;;;;;;39.17;27.10;;;12.30;91.40;;;;;;4591359;19;20512;-30
2022/12/21 02:40:30;;;;;;;39.57;26.70;;;12.40;91.50;;;;;;4591037;19;20000;-31
2022/12/21 02:44:12;;;;;;;39.00;26.80;;;12.40;91.40;;;;;;4591946;19;20003;-30
2022/12/21 02:44:26;;;;;;;40.73;28.07;;;12.30;91.40;;;;;;4591276;19;20042;-27
2022/12/21 02:46:01;;;;;;;37.70;27.60;;;12.30;91.40;;;;;;4591048;19;20007;-27
2022/12/21 02:47:45;;;;;;;37.60;26.77;;;12.30;91.40;;;;;;4588938;19;20906;-30
2022/12/21 02:49:20;;;;;;;39.97;27.07;;;12.40;91.40;;;;;;4590084;19;20511;-30
2022/12/21 02:50:53;;;;;;;40.90;28.40;;;12.40;91.40;;;;;;4590372;19;20033;-32
2022/12/21 02:52:55;;;;;;;41.13;26.23;;;12.50;91.30;;;;;;4589204;19;20081;-29
2022/12/21 02:54:27;;;;;;;38.60;27.07;;;12.50;91.20;;;;;;4589973;19;20434;-28
2022/12/21 02:55:58;;;;;;;37.83;26.33;;;12.50;91.30;;;;;;4589696;19;20466;-27
2022/12/21 02:57:33;;;;;;;35.43;25.77;;;12.60;91.30;;;;;;4589911;19;20053;-30
2022/12/21 02:59:04;;;;;;;40.00;26.63;;;12.60;91.40;;;;;;4589963;19;20073;-31
2022/12/21 03:00:35;;;;;;;37.35;26.00;;;12.60;91.40;;;;;;4590142;19;20048;-31
2022/12/21 03:03:47;;;;;;;36.05;26.20;;;12.60;91.50;;;;;;4589957;19;20101;-30
2022/12/21 03:05:12;;;;;;;39.87;26.80;;;12.60;91.50;;;;;;4589918;19;20377;-29
2022/12/21 03:07:02;;;;;;;38.13;28.23;;;12.70;91.60;;;;;;4589631;19;20018;-29
2022/12/21 03:08:55;;;;;;;37.57;26.50;;;12.60;91.60;;;;;;4589812;19;20010;-30
2022/12/21 03:10:32;;;;;;;;;;;12.60;91.70;;;;;;4590675;19;20014;-30
2022/12/21 03:12:06;;;;;;;39.63;27.63;;;12.60;91.70;;;;;;4589609;19;20334;-28
2022/12/21 03:14:03;;;;;;;36.70;26.00;;;12.50;91.70;;;;;;4589824;19;20035;-29
2022/12/21 03:15:56;;;;;;;41.27;28.67;;;12.50;91.70;;;;;;4589904;19;20017;-29
2022/12/21 03:17:38;;;;;;;41.53;29.93;;;12.60;91.80;;;;;;4591010;19;20021;-31
2022/12/21 03:19:28;;;;;;;38.23;27.23;;;12.60;91.80;;;;;;4590263;19;20024;-29
2022/12/21 03:21:02;;;;;;;37.00;27.20;;;12.50;91.80;;;;;;4587775;19;20015;-28
2022/12/21 03:23:00;;;;;;;37.13;26.87;;;12.50;91.80;;;;;;4587695;19;20014;-29
2022/12/21 03:24:39;;;;;;;37.57;26.30;;;12.50;91.90;;;;;;4587770;19;20014;-29
2022/12/21 03:26:28;;;;;;;37.13;26.73;;;12.50;91.90;;;;;;4587962;19;20019;-29
2022/12/21 03:28:01;;;;;;;37.67;26.00;;;12.50;91.80;;;;;;4588336;19;20077;-30
2022/12/21 03:29:37;;;;;;;40.07;26.83;;;12.50;91.90;;;;;;4589756;19;20032;-29
2022/12/21 03:31:14;;;;;;;37.23;25.73;;;12.50;91.90;;;;;;4590116;19;20014;-31
2022/12/21 03:33:02;;;;;;;35.63;25.70;;;12.50;91.90;;;;;;4588669;19;20058;-30
2022/12/21 03:34:42;;;;;;;37.43;27.43;;;12.50;91.90;;;;;;4590436;19;20020;-30
2022/12/21 03:36:19;;;;;;;41.23;29.23;;;12.50;91.90;;;;;;4590335;19;20026;-30
2022/12/21 03:37:50;;;;;;;40.20;30.13;;;12.50;91.90;;;;;;4588514;19;20017;-29
2022/12/21 03:39:22;;;;;;;41.90;29.00;;;12.50;91.90;;;;;;4587454;19;20508;-29
2022/12/21 03:40:55;;;;;;;41.08;29.35;;;12.50;91.90;;;;;;4590064;19;20019;-29
2022/12/21 03:42:32;;;;;;;37.07;27.57;;;12.40;91.80;;;;;;4590849;19;20128;-31
2022/12/21 03:44:04;;;;;;;38.13;27.70;;;12.50;91.80;;;;;;4588699;19;20021;-29
2022/12/21 03:45:47;;;;;;;41.10;28.70;;;12.40;91.80;;;;;;4588597;19;20014;-31
2022/12/21 03:47:27;;;;;;;36.97;27.60;;;12.40;91.80;;;;;;4587272;19;20010;-31
2022/12/21 03:49:12;;;;;;;38.10;26.90;;;12.40;91.80;;;;;;4588114;19;20036;-29
2022/12/21 03:50:46;;;;;;;37.10;26.73;;;12.50;91.90;;;;;;4588053;19;20841;-30
2022/12/21 03:52:22;;;;;;;39.30;28.63;;;12.40;91.90;;;;;;4587482;19;20433;-30
2022/12/21 03:54:12;;;;;;;40.60;28.07;;;12.40;91.90;;;;;;4587329;19;20026;-30
2022/12/21 03:55:43;;;;;;;39.10;28.23;;;12.40;91.90;;;;;;4587854;19;20006;-31
2022/12/21 03:57:14;;;;;;;36.67;27.27;;;12.40;91.80;;;;;;4587540;19;20082;-29
2022/12/21 03:58:46;;;;;;;38.65;25.60;;;12.50;91.90;;;;;;4587380;19;20093;-29
2022/12/21 04:00:17;;;;;;;37.15;27.40;;;12.40;92.10;;;;;;4589959;19;20464;-27
2022/12/21 04:02:03;;;;;;;33.55;25.33;;;12.40;91.90;;;;;;4589530;19;20413;-28
2022/12/21 04:03:35;;;;;;;37.37;26.67;;;12.40;91.80;;;;;;4588257;19;20022;-29
2022/12/21 04:05:30;;;;;;;33.92;24.13;;;12.40;91.90;;;;;;4589874;19;20069;-29
2022/12/21 04:07:03;;;;;;;35.30;25.57;;;12.40;91.80;;;;;;4588002;19;20057;-32
2022/12/21 04:08:34;;;;;;;33.73;24.67;;;12.40;91.80;;;;;;4587429;19;20365;-29
2022/12/21 04:10:11;;;;;;;32.35;25.30;;;12.40;91.80;;;;;;4588250;19;20039;-31
2022/12/21 04:13:34;;;;;;;35.17;25.13;;;12.40;91.70;;;;;;4588647;19;20022;-31
2022/12/21 04:15:07;;;;;;;34.97;24.80;;;12.40;91.70;;;;;;4588104;19;20111;-30
2022/12/21 04:16:38;;;;;;;32.80;23.83;;;12.40;91.70;;;;;;4587989;19;20006;-30
2022/12/21 04:18:09;;;;;;;36.05;24.50;;;12.40;91.60;;;;;;4587640;19;20011;-28
2022/12/21 04:19:59;;;;;;;33.30;23.48;;;12.40;91.60;;;;;;4586863;19;20360;-30
2022/12/21 04:21:30;;;;;;;34.47;25.07;;;12.40;91.70;;;;;;4587367;19;20015;-30
2022/12/21 04:28:38;;;;;;;40.67;27.60;;;9.30;94.70;;;;;;4587408;19;20487;-29
2022/12/21 04:30:09;;;;;;;37.75;26.45;;;8.70;95.80;;;;;;4587551;19;20473;-28
2022/12/21 04:31:41;;;;;;;39.63;26.17;;;8.50;96.10;;;;;;4586945;19;20487;-30
2022/12/21 04:33:14;;;;;;;43.30;29.30;;;8.40;96.40;;;;;;4586630;19;20025;-29
2022/12/21 04:34:45;;;;;;;40.10;27.10;;;8.30;96.60;;;;;;4587177;19;20007;-31
2022/12/21 04:38:07;;;;;;;37.93;26.57;;;8.20;96.90;;;;;;4586842;19;20029;-29
2022/12/21 04:39:38;;;;;;;41.88;27.33;;;8.20;97.00;;;;;;4589111;19;20465;-30
2022/12/21 04:41:09;;;;;;;41.70;27.40;;;8.20;97.00;;;;;;4589020;19;20011;-28
2022/12/21 04:42:41;;;;;;;40.63;27.65;;;8.10;97.20;;;;;;4588905;19;20117;-30
2022/12/21 04:44:12;;;;;;;39.25;27.67;;;8.10;97.40;;;;;;4587904;19;20543;-34
2022/12/21 04:45:43;;;;;;;40.80;27.17;;;8.10;97.40;;;;;;4587418;19;20018;-31
2022/12/21 04:47:14;;;;;;;40.38;27.50;;;8.10;97.60;;;;;;4585927;19;20007;-28
2022/12/21 04:48:46;;;;;;;39.30;26.73;;;8.10;97.30;;;;;;4586591;19;20007;-30
2022/12/21 04:50:17;;;;;;;39.67;26.88;;;8.10;97.60;;;;;;4586698;19;20017;-32
2022/12/21 04:51:48;;;;;;;39.13;27.77;;;8.00;97.70;;;;;;4589163;19;20132;-30
2022/12/21 04:53:20;;;;;;;38.88;27.60;;;8.10;97.60;;;;;;4588850;19;20040;-30
2022/12/21 04:54:51;;;;;;;40.33;25.75;;;8.10;97.60;;;;;;4587960;19;20475;-28
2022/12/21 04:56:22;;;;;;;38.28;26.95;;;8.00;97.70;;;;;;4587076;19;20034;-30
2022/12/21 04:57:53;;;;;;;43.40;26.80;;;8.00;97.80;;;;;;4587514;19;20030;-30
2022/12/21 04:59:24;;;;;;;40.78;28.05;;;8.00;97.90;;;;;;4587468;19;20015;-32
2022/12/21 05:00:57;;;;;;;40.30;27.27;;;8.00;98.00;;;;;;4586610;19;20010;-30
2022/12/21 05:02:28;;;;;;;40.90;26.58;;;8.00;98.00;;;;;;4585879;19;20452;-33
2022/12/21 05:04:00;;;;;;;41.15;28.60;;;8.00;98.10;;;;;;4585540;19;20038;-31
2022/12/21 05:05:31;;;;;;;41.20;27.58;;;8.00;98.00;;;;;;4586635;19;20031;-32
2022/12/21 05:07:03;;;;;;;40.00;27.27;;;8.00;98.00;;;;;;4590235;19;20010;-30
2022/12/21 05:08:34;;;;;;;38.72;26.67;;;8.00;98.10;;;;;;4589062;19;20078;-33
2022/12/21 05:10:08;;;;;;;36.03;25.42;;;8.00;98.20;;;;;;4590108;19;20039;-29
2022/12/21 05:11:39;;;;;;;40.27;26.47;;;8.00;98.20;;;;;;4589566;19;20010;-30
2022/12/21 05:13:10;;;;;;;39.90;27.42;;;7.90;98.20;;;;;;4588485;19;20441;-27
2022/12/21 05:14:42;;;;;;;42.13;26.25;;;7.90;98.10;;;;;;4588657;19;20032;-28
2022/12/21 05:16:15;;;;;;;42.10;27.73;;;7.90;98.40;;;;;;4588846;19;20057;-29
2022/12/21 05:17:47;;;;;;;40.10;27.50;;;7.90;98.30;;;;;;4587021;19;20018;-30
2022/12/21 05:19:18;;;;;;;38.33;26.88;;;7.90;98.60;;;;;;4584333;19;20445;-28
2022/12/21 05:20:49;;;;;;;40.85;27.50;;;7.90;98.50;;;;;;4587999;19;20014;-26
2022/12/21 05:22:20;;;;;;;41.72;28.40;;;7.90;98.70;;;;;;4590634;19;20010;-30
2022/12/21 05:23:52;;;;;;;38.13;26.52;;;7.90;98.70;;;;;;4590241;19;20015;-30
2022/12/21 05:25:23;;;;;;;45.10;27.92;;;7.90;98.70;;;;;;4589938;19;20032;-30
2022/12/21 05:26:54;;;;;;;41.75;28.45;;;7.90;98.60;;;;;;4586882;19;20041;-30
2022/12/21 05:28:25;;;;;;;40.33;28.60;;;7.90;98.90;;;;;;4588413;19;20097;-27
2022/12/21 05:29:57;;;;;;;44.72;28.52;;;7.90;98.80;;;;;;4587247;19;20011;-32
2022/12/21 05:31:28;;;;;;;39.38;27.17;;;7.90;98.70;;;;;;4587737;19;20025;-31
2022/12/21 05:33:00;;;;;;;40.05;26.90;;;7.90;98.80;;;;;;4588380;19;20761;-28
2022/12/21 05:34:31;;;;;;;43.83;26.63;;;7.90;99.00;;;;;;4587858;19;20010;-31
2022/12/21 05:36:03;;;;;;;39.53;27.60;;;7.90;99.00;;;;;;4590517;19;20021;-32
2022/12/21 05:37:34;;;;;;;40.63;27.60;;;7.90;99.30;;;;;;4590320;19;20082;-33
2022/12/21 05:39:06;;;;;;;38.47;27.77;;;7.80;99.20;;;;;;4590137;19;20433;-29
2022/12/21 05:40:37;;;;;;;42.65;30.80;;;7.80;99.00;;;;;;4589326;19;20372;-30
2022/12/21 05:42:09;;;;;;;36.97;26.23;;;7.80;99.10;;;;;;4589272;19;20010;-32
2022/12/21 05:43:40;;;;;;;40.77;28.43;;;7.80;99.30;;;;;;4588720;19;20020;-30
2022/12/21 05:45:12;;;;;;;42.08;27.27;;;7.80;99.50;;;;;;4588263;19;20568;-28
2022/12/21 05:46:44;;;;;;;40.30;26.73;;;7.80;99.40;;;;;;4587661;19;20074;-30
2022/12/21 05:48:16;;;;;;;42.33;28.80;;;7.90;99.40;;;;;;4587596;19;20457;-27
2022/12/21 05:49:47;;;;;;;39.10;26.73;;;7.90;99.70;;;;;;4587503;19;20457;-30
2022/12/21 05:51:20;;;;;;;39.15;27.50;;;7.90;99.40;;;;;;4588483;19;20073;-32
2022/12/21 05:52:51;;;;;;;43.13;29.00;;;7.80;99.50;;;;;;4589147;19;20021;-30
2022/12/21 05:54:22;;;;;;;41.70;28.85;;;7.90;99.70;;;;;;4588675;19;20564;-30
2022/12/21 05:55:54;;;;;;;;;;;7.90;99.80;;;;;;4589404;19;20074;-29
2022/12/21 05:57:25;;;;;;;50.70;31.60;;;7.80;99.70;;;;;;4587431;19;19918;-30
2022/12/21 05:58:56;;;;;;;51.17;32.67;;;7.80;99.90;;;;;;4587300;19;20535;-29
2022/12/21 06:00:27;;;;;;;47.60;31.05;;;7.80;99.90;;;;;;4586305;19;20045;-30
2022/12/21 06:01:59;;;;;;;48.45;31.73;;;8.10;99.90;;;;;;4589026;19;20014;-30
2022/12/21 06:03:30;;;;;;;46.72;29.63;;;8.80;98.90;;;;;;4586583;19;20014;-30
2022/12/21 06:05:01;;;;;;;45.30;31.55;;;9.30;98.10;;;;;;4587427;19;20034;-31
2022/12/21 06:06:33;;;;;;;51.28;36.47;;;9.70;97.40;;;;;;4589830;19;20014;-28
2022/12/21 06:08:04;;;;;;;52.72;37.08;;;10.00;97.00;;;;;;4587249;19;20033;-29
2022/12/21 06:09:35;;;;;;;46.67;34.58;;;10.20;96.60;;;;;;4589419;19;20383;-30
2022/12/21 06:11:08;;;;;;;46.83;33.92;;;10.30;96.20;;;;;;4586334;19;20449;-30
2022/12/21 06:12:40;;;;;;;44.77;32.47;;;10.50;96.10;;;;;;4589323;19;20015;-28
2022/12/21 06:14:11;;;;;;;49.80;35.50;;;10.60;95.90;;;;;;4588370;19;20513;-33
2022/12/21 06:15:42;;;;;;;54.75;38.63;;;10.70;95.70;;;;;;4589313;19;20490;-31
2022/12/21 06:17:13;;;;;;;48.15;35.53;;;10.80;95.60;;;;;;4588544;19;20096;-29
2022/12/21 06:18:45;;;;;;;43.15;30.83;;;10.80;95.50;;;;;;4589284;19;20527;-31
2022/12/21 06:20:17;;;;;;;47.10;33.25;;;10.90;95.40;;;;;;4588795;19;20503;-31
2022/12/21 06:21:48;;;;;;;100.82;68.25;;;11.00;95.30;;;;;;4587490;19;20475;-29
2022/12/21 06:23:19;;;;;;;122.30;80.40;;;11.00;95.20;;;;;;4588729;19;20010;-31
2022/12/21 06:24:51;;;;;;;124.13;82.70;;;11.10;95.20;;;;;;4588115;19;20026;-29
2022/12/21 06:26:22;;;;;;;175.00;108.13;;;11.10;95.00;;;;;;4589578;19;20038;-31
2022/12/21 06:27:53;;;;;;;137.43;80.75;;;11.20;95.00;;;;;;4586478;19;20014;-31
2022/12/21 06:29:25;;;;;;;293.40;162.60;;;11.20;94.90;;;;;;4589817;19;20032;-30
2022/12/21 06:31:07;;;;;;;264.25;143.43;;;11.30;94.80;;;;;;4591264;19;20035;-30
2022/12/21 06:32:38;;;;;;;231.77;123.53;;;11.30;94.70;;;;;;4592204;19;20420;-32
2022/12/21 06:34:10;;;;;;;199.45;111.28;;;11.30;94.60;;;;;;4594039;19;20499;-33
2022/12/21 06:35:41;;;;;;;172.25;98.90;;;11.40;94.60;;;;;;4594172;19;20052;-30
2022/12/21 06:37:13;;;;;;;157.35;94.60;;;11.40;94.50;;;;;;4593977;19;20014;-28
2022/12/21 06:38:44;;;;;;;134.32;84.35;;;11.50;94.60;;;;;;4595056;19;20014;-30
2022/12/21 06:40:15;;;;;;;109.65;76.15;;;11.50;94.50;;;;;;4594701;19;20018;-30
2022/12/21 06:41:47;;;;;;;82.57;59.20;;;11.50;94.40;;;;;;4594911;19;20018;-30
2022/12/21 06:43:18;;;;;;;81.20;61.53;;;11.60;94.50;;;;;;4593004;19;20370;-30
2022/12/21 06:44:50;;;;;;;63.80;48.70;;;11.60;94.40;;;;;;4595401;19;20015;-28
2022/12/21 06:46:21;;;;;;;63.10;45.63;;;11.60;94.30;;;;;;4593980;19;20086;-32
2022/12/21 06:47:53;;;;;;;55.13;42.75;;;11.60;94.30;;;;;;4593265;19;20457;-29
2022/12/21 06:49:24;;;;;;;;;;;11.60;94.30;;;;;;4595477;19;20018;-29
2022/12/21 06:50:57;;;;;;;45.20;33.03;;;11.70;94.30;;;;;;4595636;19;19922;-29
2022/12/21 06:52:28;;;;;;;40.50;29.40;;;11.70;94.30;;;;;;4594365;19;20479;-28
2022/12/21 06:53:59;;;;;;;38.03;27.13;;;11.70;94.20;;;;;;4593216;19;20475;-28
2022/12/21 06:55:31;;;;;;;42.33;29.23;;;11.70;94.20;;;;;;4595257;19;20006;-30
2022/12/21 06:57:02;;;;;;;37.33;28.35;;;11.70;94.20;;;;;;4593637;19;20484;-34
2022/12/21 06:58:34;;;;;;;42.95;30.92;;;11.70;94.20;;;;;;4594076;19;20014;-35
2022/12/21 07:00:09;;;;;;;38.50;27.67;;;11.70;94.20;;;;;;4593982;19;20074;-33
2022/12/21 07:01:40;;;;;;;37.20;27.30;;;11.70;94.20;;;;;;4594273;19;20825;-33
2022/12/21 07:03:12;;;;;;;37.55;27.25;;;11.70;94.10;;;;;;4592028;19;20588;-36
2022/12/21 07:04:43;;;;;;;38.35;27.55;;;11.80;94.10;;;;;;4591456;19;20018;-32
2022/12/21 07:06:15;;;;;;;36.60;26.80;;;11.80;94.00;;;;;;4594648;19;20018;-30
2022/12/21 07:07:46;;;;;;;41.27;29.20;;;11.80;94.10;;;;;;4592577;19;20019;-32
2022/12/21 07:09:17;;;;;;;37.03;28.05;;;11.90;94.00;;;;;;4594018;19;20527;-35
2022/12/21 07:10:49;;;;;;;41.50;29.50;;;11.90;94.00;;;;;;4594025;19;20014;-36
2022/12/21 07:12:20;;;;;;;43.17;30.50;;;11.90;94.00;;;;;;4595034;19;20010;-32
2022/12/21 07:13:54;;;;;;;38.83;29.45;;;11.90;94.00;;;;;;4594002;19;20025;-33
2022/12/21 07:15:25;;;;;;;39.23;28.00;;;11.90;94.00;;;;;;4592439;19;20011;-35
2022/12/21 07:16:57;;;;;;;46.30;29.38;;;11.90;94.00;;;;;;4594006;19;20421;-32
2022/12/21 07:18:28;;;;;;;43.40;28.90;;;11.90;94.00;;;;;;4592742;19;20074;-31
2022/12/21 07:19:59;;;;;;;42.70;28.00;;;11.90;93.90;;;;;;4593759;19;20007;-37
2022/12/21 07:21:30;;;;;;;38.42;27.52;;;11.90;94.00;;;;;;4591945;19;20034;-32
2022/12/21 07:23:03;;;;;;;36.78;26.30;;;11.90;93.90;;;;;;4594475;19;20006;-34
2022/12/21 07:24:34;;;;;;;38.70;27.20;;;11.90;93.90;;;;;;4593614;19;20010;-32
2022/12/21 07:26:07;;;;;;;36.42;26.70;;;11.90;93.90;;;;;;4592714;19;21005;-35
2022/12/21 07:27:38;;;;;;;36.70;25.87;;;12.00;93.90;;;;;;4592338;19;20481;-35
2022/12/21 07:29:11;;;;;;;;;;;12.00;93.80;;;;;;4592995;19;21052;-31
2022/12/21 07:30:47;;;;;;;;;;;12.00;93.80;;;;;;4594075;19;19938;-34
2022/12/21 07:32:19;;;;;;;43.53;27.60;;;12.10;93.70;;;;;;4592107;19;19922;-33
2022/12/21 07:33:50;;;;;;;41.38;27.23;;;12.10;93.70;;;;;;4592739;19;20453;-35
2022/12/21 07:35:22;;;;;;;42.55;27.48;;;12.20;93.70;;;;;;4594201;19;20487;-34
2022/12/21 07:36:53;;;;;;;39.25;27.73;;;12.20;93.60;;;;;;4591625;19;20036;-38
2022/12/21 07:38:28;;;;;;;40.45;27.27;;;12.20;93.60;;;;;;4594027;19;20031;-32
2022/12/21 07:39:59;;;;;;;38.17;25.50;;;12.20;93.60;;;;;;4593280;19;20341;-32
2022/12/21 07:41:31;;;;;;;43.75;29.70;;;12.30;93.50;;;;;;4594116;19;20024;-32
2022/12/21 07:43:10;;;;;;;39.80;29.30;;;12.30;93.60;;;;;;4590365;19;20014;-33
2022/12/21 07:44:41;;;;;;;44.20;31.43;;;12.20;93.60;;;;;;4591984;19;20029;-33
2022/12/21 07:46:13;;;;;;;52.10;34.63;;;12.30;93.80;;;;;;4592414;19;20827;-30
2022/12/21 07:47:47;;;;;;;43.87;31.33;;;12.20;93.80;;;;;;4589415;19;20076;-38
2022/12/21 07:49:18;;;;;;;38.90;29.23;;;12.20;93.60;;;;;;4592576;19;20604;-35
2022/12/21 07:50:49;;;;;;;40.38;29.73;;;12.20;93.60;;;;;;4589811;19;20022;-34
2022/12/21 07:52:21;;;;;;;39.73;30.63;;;12.20;93.60;;;;;;4591327;19;20026;-30
2022/12/21 07:53:52;;;;;;;37.72;27.88;;;12.20;93.60;;;;;;4591327;19;20433;-37
2022/12/21 07:55:26;;;;;;;39.80;32.13;;;12.20;93.60;;;;;;4590986;19;20018;-33
2022/12/21 07:56:59;;;;;;;44.13;33.80;;;12.20;93.70;;;;;;4591165;19;20014;-33
2022/12/21 07:58:30;;;;;;;38.03;29.57;;;12.20;93.70;;;;;;4591024;19;20527;-33
2022/12/21 08:00:03;;;;;;;38.45;31.55;;;12.20;93.70;;;;;;4591393;19;20078;-32
2022/12/21 08:01:34;;;;;;;41.83;31.17;;;12.20;93.60;;;;;;4591024;19;20374;-32
2022/12/21 08:03:06;;;;;;;41.70;30.58;;;12.20;93.70;;;;;;4590534;19;20445;-32
2022/12/21 08:04:39;;;;;;;42.10;30.00;;;12.20;93.70;;;;;;4587560;19;20031;-34
2022/12/21 08:06:11;;;;;;;42.00;28.48;;;12.20;93.70;;;;;;4590409;19;20035;-36
2022/12/21 08:07:42;;;;;;;38.83;28.05;;;12.20;93.70;;;;;;4590428;19;20682;-37
2022/12/21 08:09:13;;;;;;;39.90;28.05;;;12.20;93.70;;;;;;4591340;19;20006;-35
2022/12/21 08:10:46;;;;;;;40.38;29.60;;;12.20;93.70;;;;;;4590752;19;20032;-35